createdAt,value
2019-06-15T00:00:39.479Z,3.05
2019-06-15T00:03:09.943Z,2.92
2019-06-15T00:05:39.833Z,3.07
2019-06-15T00:08:10.201Z,3.10
2019-06-15T00:10:40.249Z,3.12
2019-06-15T00:13:11.801Z,3.10
2019-06-15T00:15:41.821Z,2.65
2019-06-15T00:18:11.958Z,2.80
2019-06-15T00:20:42.493Z,3.27
2019-06-15T00:23:12.842Z,3.00
2019-06-15T00:25:43.326Z,2.77
2019-06-15T00:28:13.813Z,2.87
2019-06-15T00:30:43.650Z,3.00
2019-06-15T00:33:13.413Z,2.73
2019-06-15T00:35:43.301Z,2.90
2019-06-15T00:38:13.221Z,2.70
2019-06-15T00:40:45.434Z,3.00
2019-06-15T00:43:15.068Z,3.23
2019-06-15T00:45:46.518Z,2.80
2019-06-15T00:48:16.457Z,2.70
2019-06-15T00:50:46.353Z,3.03
2019-06-15T00:53:16.793Z,3.20
2019-06-15T00:55:46.606Z,3.20
2019-06-15T00:58:17.409Z,3.10
2019-06-15T01:00:47.693Z,2.70
2019-06-15T01:03:18.218Z,2.87
2019-06-15T01:05:47.892Z,3.00
2019-06-15T01:08:18.278Z,3.00
2019-06-15T01:10:48.834Z,3.17
2019-06-15T01:13:18.969Z,2.87
2019-06-15T01:15:50.078Z,3.17
2019-06-15T01:18:20.580Z,2.80
2019-06-15T01:20:50.517Z,2.90
2019-06-15T01:23:21.142Z,3.00
2019-06-15T01:25:51.118Z,2.80
2019-06-15T01:28:20.894Z,3.30
2019-06-15T01:30:52.960Z,2.90
2019-06-15T01:33:22.949Z,3.00
2019-06-15T01:35:52.911Z,3.07
2019-06-15T01:38:23.353Z,3.47
2019-06-15T01:40:53.041Z,3.17
2019-06-15T01:43:23.009Z,3.10
2019-06-15T01:45:53.477Z,3.30
2019-06-15T01:48:24.177Z,2.97
2019-06-15T01:50:54.529Z,3.27
2019-06-15T01:53:24.441Z,3.30
2019-06-15T01:55:54.389Z,3.00
2019-06-15T01:58:24.927Z,3.00
2019-06-15T02:00:55.927Z,3.40
2019-06-15T02:03:26.417Z,3.33
2019-06-15T02:05:56.517Z,3.00
2019-06-15T02:08:26.201Z,3.07
2019-06-15T02:10:56.154Z,3.30
2019-06-15T02:13:26.385Z,3.20
2019-06-15T02:15:56.277Z,3.10
2019-06-15T02:18:26.193Z,3.07
2019-06-15T02:20:56.501Z,3.10
2019-06-15T02:23:27.037Z,3.03
2019-06-15T02:25:57.423Z,3.10
2019-06-15T02:28:28.911Z,2.93
2019-06-15T02:30:59.906Z,3.47
2019-06-15T02:33:30.445Z,3.37
2019-06-15T02:36:00.863Z,3.03
2019-06-15T02:38:30.767Z,3.43
2019-06-15T02:41:01.217Z,3.30
2019-06-15T02:43:31.450Z,3.73
2019-06-15T02:46:01.360Z,3.57
2019-06-15T02:48:31.760Z,3.37
2019-06-15T02:51:02.217Z,3.47
2019-06-15T02:53:33.146Z,3.43
2019-06-15T02:56:02.978Z,3.30
2019-06-15T02:58:32.794Z,3.10
2019-06-15T03:01:06.364Z,2.90
2019-06-15T03:03:36.726Z,3.73
2019-06-15T03:06:06.768Z,3.47
2019-06-15T03:08:37.758Z,3.77
2019-06-15T03:11:08.565Z,4.17
2019-06-15T03:13:38.471Z,3.37
2019-06-15T03:16:09.494Z,4.10
2019-06-15T03:18:39.455Z,3.60
2019-06-15T03:21:10.885Z,3.53
2019-06-15T03:23:40.877Z,3.20
2019-06-15T03:26:11.673Z,3.23
2019-06-15T03:28:42.106Z,3.23
2019-06-15T03:31:14.586Z,3.22
2019-06-15T03:33:45.373Z,3.10
2019-06-15T03:36:22.317Z,3.17
2019-06-15T03:38:52.213Z,3.10
2019-06-15T03:41:22.651Z,3.30
2019-06-15T03:43:54.425Z,3.03
2019-06-15T03:46:24.871Z,2.90
2019-06-15T03:48:55.865Z,2.90
2019-06-15T03:51:25.647Z,2.80
2019-06-15T03:53:55.465Z,2.63
2019-06-15T03:56:25.417Z,2.67
2019-06-15T03:58:56.130Z,2.60
2019-06-15T04:01:35.348Z,2.37
2019-06-15T04:04:05.370Z,2.60
2019-06-15T04:06:35.596Z,2.50
2019-06-15T04:09:07.660Z,2.30
2019-06-15T04:11:38.105Z,2.20
2019-06-15T04:14:08.086Z,2.47
2019-06-15T04:16:38.001Z,1.90
2019-06-15T04:19:10.309Z,2.10
2019-06-15T04:21:42.138Z,2.30
2019-06-15T04:24:12.322Z,2.30
2019-06-15T04:26:44.081Z,2.10
2019-06-15T04:29:13.882Z,2.07
2019-06-15T04:31:44.014Z,2.20
2019-06-15T04:34:15.582Z,1.90
2019-06-15T04:36:46.418Z,2.10
2019-06-15T04:39:17.148Z,2.13
2019-06-15T04:41:47.445Z,1.80
2019-06-15T04:44:18.003Z,2.17
2019-06-15T04:46:47.945Z,1.90
2019-06-15T04:49:18.430Z,1.60
2019-06-15T04:51:48.349Z,1.90
2019-06-15T04:54:18.276Z,2.02
2019-06-15T04:56:51.270Z,2.10
2019-06-15T04:59:20.708Z,2.07
2019-06-15T05:01:51.371Z,1.70
2019-06-15T05:04:21.727Z,1.90
2019-06-15T05:06:51.690Z,2.20
2019-06-15T05:09:21.569Z,2.17
2019-06-15T05:11:51.465Z,1.87
2019-06-15T05:14:21.509Z,1.90
2019-06-15T05:16:50.906Z,2.00
2019-06-15T05:19:20.813Z,1.75
2019-06-15T05:21:51.311Z,1.95
2019-06-15T05:24:21.657Z,1.95
2019-06-15T05:27:05.602Z,1.67
2019-06-15T05:29:24.251Z,1.65
2019-06-15T05:31:53.808Z,1.80
2019-06-15T05:34:24.202Z,1.90
2019-06-15T05:36:54.190Z,1.80
2019-06-15T05:39:24.899Z,1.92
2019-06-15T05:41:55.297Z,1.70
2019-06-15T05:44:25.833Z,1.70
2019-06-15T05:46:56.586Z,1.80
2019-06-15T05:49:29.030Z,1.52
2019-06-15T05:51:59.526Z,1.42
2019-06-15T05:54:29.935Z,1.72
2019-06-15T05:57:00.497Z,1.70
2019-06-15T05:59:30.495Z,1.80
2019-06-15T06:02:00.989Z,1.72
2019-06-15T06:04:30.911Z,1.90
2019-06-15T06:07:03.018Z,1.70
2019-06-15T06:09:32.757Z,1.70
2019-06-15T06:12:04.931Z,1.42
2019-06-15T06:14:35.322Z,1.60
2019-06-15T06:17:05.033Z,1.80
2019-06-15T06:19:34.921Z,1.70
2019-06-15T06:22:06.295Z,1.52
2019-06-15T06:24:36.193Z,1.70
2019-06-15T06:27:08.090Z,1.80
2019-06-15T06:29:39.228Z,1.70
2019-06-15T06:32:12.413Z,1.62
2019-06-15T06:34:42.126Z,1.37
2019-06-15T06:37:13.388Z,1.50
2019-06-15T06:39:45.225Z,1.62
2019-06-15T06:42:14.870Z,1.70
2019-06-15T06:44:45.849Z,1.57
2019-06-15T06:47:16.720Z,1.52
2019-06-15T06:49:47.125Z,1.50
2019-06-15T06:52:18.067Z,1.60
2019-06-15T06:54:49.626Z,1.60
2019-06-15T06:57:20.538Z,1.70
2019-06-15T06:59:50.930Z,1.70
2019-06-15T07:02:22.713Z,1.57
2019-06-15T07:04:53.013Z,1.80
2019-06-15T07:07:23.353Z,1.50
2019-06-15T07:09:53.612Z,1.70
2019-06-15T07:12:23.919Z,1.45
2019-06-15T07:14:53.861Z,1.32
2019-06-15T07:17:24.734Z,1.40
2019-06-15T07:19:55.761Z,1.50
2019-06-15T07:22:25.598Z,1.47
2019-06-15T07:24:56.441Z,1.37
2019-06-15T07:27:26.766Z,1.70
2019-06-15T07:29:58.715Z,1.60
2019-06-15T07:32:29.305Z,1.40
2019-06-15T07:34:59.298Z,1.40
2019-06-15T07:37:29.102Z,1.50
2019-06-15T07:40:00.021Z,1.32
2019-06-15T07:42:30.653Z,1.60
2019-06-15T07:45:01.399Z,1.52
2019-06-15T07:47:32.009Z,1.45
2019-06-15T07:50:05.403Z,1.32
2019-06-15T07:52:35.898Z,1.62
2019-06-15T07:55:06.030Z,1.57
2019-06-15T07:57:36.531Z,1.25
2019-06-15T08:00:07.607Z,1.45
2019-06-15T08:02:38.076Z,1.30
2019-06-15T08:05:09.143Z,1.40
2019-06-15T08:07:40.533Z,1.25
2019-06-15T08:10:11.609Z,1.20
2019-06-15T08:12:42.594Z,1.20
2019-06-15T08:15:12.585Z,1.10
2019-06-15T08:17:45.440Z,1.50
2019-06-15T08:20:14.399Z,1.30
2019-06-15T08:22:44.953Z,1.45
2019-06-15T08:25:15.485Z,1.07
2019-06-15T08:27:47.948Z,1.52
2019-06-15T08:30:20.241Z,1.32
2019-06-15T08:32:50.238Z,1.20
2019-06-15T08:35:20.666Z,1.22
2019-06-15T08:37:50.579Z,1.50
2019-06-15T08:40:21.762Z,1.42
2019-06-15T08:42:52.693Z,1.22
2019-06-15T08:45:22.706Z,1.85
2019-06-15T08:47:53.111Z,1.20
2019-06-15T08:50:23.612Z,1.00
2019-06-15T08:52:54.323Z,1.10
2019-06-15T08:55:24.237Z,1.10
2019-06-15T08:57:54.256Z,1.10
2019-06-15T09:00:24.299Z,1.10
2019-06-15T09:02:54.793Z,1.20
2019-06-15T09:05:26.056Z,1.10
2019-06-15T09:07:58.105Z,1.55
2019-06-15T09:10:28.335Z,1.22
2019-06-15T09:12:58.270Z,1.02
2019-06-15T09:15:35.502Z,1.70
2019-06-15T09:18:06.072Z,1.55
2019-06-15T09:20:35.923Z,1.45
2019-06-15T09:23:17.658Z,1.10
2019-06-15T09:25:47.505Z,1.10
2019-06-15T09:28:17.445Z,1.00
2019-06-15T09:30:48.229Z,1.20
2019-06-15T09:33:18.649Z,1.40
2019-06-15T09:35:48.305Z,1.12
2019-06-15T09:38:18.737Z,1.20
2019-06-15T09:40:50.778Z,1.15
2019-06-15T09:43:21.045Z,1.12
2019-06-15T09:45:51.438Z,1.10
2019-06-15T09:48:21.221Z,1.22
2019-06-15T09:50:52.063Z,1.27
2019-06-15T09:53:23.465Z,1.50
2019-06-15T09:55:53.844Z,1.07
2019-06-15T09:58:24.714Z,1.37
2019-06-15T10:00:55.633Z,1.27
2019-06-15T10:03:26.522Z,1.10
2019-06-15T10:05:57.341Z,1.52
2019-06-15T10:08:27.746Z,1.20
2019-06-15T10:10:58.261Z,1.22
2019-06-15T10:13:31.394Z,1.40
2019-06-15T10:16:00.410Z,1.30
2019-06-15T10:18:32.158Z,1.30
2019-06-15T10:21:02.308Z,1.37
2019-06-15T10:23:32.118Z,1.22
2019-06-15T10:26:02.517Z,1.50
2019-06-15T10:28:33.502Z,1.60
2019-06-15T10:31:04.881Z,1.30
2019-06-15T10:33:34.610Z,1.25
2019-06-15T10:36:05.282Z,1.35
2019-06-15T10:38:35.569Z,1.55
2019-06-15T10:41:05.506Z,1.20
2019-06-15T10:43:35.564Z,1.47
2019-06-15T10:46:06.840Z,1.27
2019-06-15T10:48:37.235Z,1.20
2019-06-15T10:51:08.159Z,1.30
2019-06-15T10:53:38.075Z,1.30
2019-06-15T10:56:20.249Z,1.25
2019-06-15T10:58:45.709Z,1.42
2019-06-15T11:01:18.225Z,1.30
2019-06-15T11:03:49.507Z,1.35
2019-06-15T11:06:19.381Z,1.47
2019-06-15T11:08:49.137Z,1.32
2019-06-15T11:11:21.906Z,1.30
2019-06-15T11:13:51.821Z,1.40
2019-06-15T11:16:21.775Z,1.20
2019-06-15T11:18:52.267Z,1.47
2019-06-15T11:21:23.554Z,1.32
2019-06-15T11:23:55.333Z,1.20
2019-06-15T11:26:26.269Z,1.10
2019-06-15T11:28:55.790Z,1.22
2019-06-15T11:31:26.828Z,1.20
2019-06-15T11:33:58.862Z,1.20
2019-06-15T11:36:29.965Z,1.40
2019-06-15T11:39:01.761Z,1.40
2019-06-15T11:41:33.493Z,1.15
2019-06-15T11:44:09.550Z,1.30
2019-06-15T11:46:40.990Z,1.20
2019-06-15T11:49:11.421Z,1.40
2019-06-15T11:51:46.506Z,1.47
2019-06-15T11:54:17.369Z,1.65
2019-06-15T11:56:47.096Z,1.40
2019-06-15T11:59:16.706Z,1.30
2019-06-15T12:01:46.618Z,1.20
2019-06-15T12:04:16.902Z,1.30
2019-06-15T12:06:47.269Z,1.40
2019-06-15T12:09:17.780Z,1.50
2019-06-15T12:11:48.549Z,1.12
2019-06-15T12:14:18.461Z,1.45
2019-06-15T12:16:52.005Z,1.37
2019-06-15T12:19:22.525Z,1.30
2019-06-15T12:21:53.133Z,1.40
2019-06-15T12:24:23.150Z,1.30
2019-06-15T12:26:52.986Z,1.60
2019-06-15T12:29:23.110Z,1.55
2019-06-15T12:31:52.995Z,1.42
2019-06-15T12:34:23.341Z,1.37
2019-06-15T12:36:53.818Z,1.20
2019-06-15T12:39:24.090Z,1.12
2019-06-15T12:41:53.823Z,1.25
2019-06-15T12:44:24.309Z,1.35
2019-06-15T12:46:55.812Z,1.40
2019-06-15T12:49:26.813Z,1.22
2019-06-15T12:51:56.853Z,1.50
2019-06-15T12:54:27.578Z,1.40
2019-06-15T12:56:57.454Z,1.20
2019-06-15T12:59:27.538Z,1.40
2019-06-15T13:01:57.983Z,1.12
2019-06-15T13:04:27.757Z,1.50
2019-06-15T13:06:58.589Z,1.55
2019-06-15T13:09:29.526Z,1.35
2019-06-15T13:12:00.235Z,1.52
2019-06-15T13:14:30.735Z,1.50
2019-06-15T13:17:00.533Z,1.98
2019-06-15T13:19:31.133Z,1.30
2019-06-15T13:22:01.633Z,1.30
2019-06-15T13:24:33.181Z,1.30
2019-06-15T13:27:02.901Z,1.32
2019-06-15T13:29:34.486Z,1.50
2019-06-15T13:32:04.331Z,1.45
2019-06-15T13:34:34.273Z,1.25
2019-06-15T13:37:04.813Z,1.25
2019-06-15T13:39:37.981Z,1.50
2019-06-15T13:42:09.018Z,1.37
2019-06-15T13:44:39.274Z,1.30
2019-06-15T13:47:10.301Z,1.25
2019-06-15T13:49:39.886Z,1.32
2019-06-15T13:52:09.803Z,1.27
2019-06-15T13:54:40.757Z,1.07
2019-06-15T13:57:10.603Z,1.50
2019-06-15T13:59:41.774Z,1.40
2019-06-15T14:02:15.406Z,1.42
2019-06-15T14:04:48.447Z,1.35
2019-06-15T14:07:18.901Z,1.25
2019-06-15T14:09:49.213Z,1.22
2019-06-15T14:12:19.837Z,1.10
2019-06-15T14:14:50.730Z,1.30
2019-06-15T14:17:21.283Z,1.52
2019-06-15T14:19:51.076Z,1.30
2019-06-15T14:22:21.049Z,1.20
2019-06-15T14:24:50.997Z,5.53
2019-06-15T14:27:21.913Z,1.55
2019-06-15T14:29:51.937Z,1.20
2019-06-15T14:32:21.630Z,1.30
2019-06-15T14:34:54.190Z,1.45
2019-06-15T14:37:26.338Z,1.55
2019-06-15T14:39:56.825Z,1.30
2019-06-15T14:42:27.345Z,1.75
2019-06-15T14:44:57.800Z,1.45
2019-06-15T14:47:28.527Z,1.70
2019-06-15T14:49:58.301Z,1.37
2019-06-15T14:52:28.151Z,1.42
2019-06-15T14:54:57.965Z,1.57
2019-06-15T14:57:31.455Z,1.50
2019-06-15T15:00:05.940Z,1.57
2019-06-15T15:02:36.970Z,1.67
2019-06-15T15:05:07.189Z,1.67
2019-06-15T15:07:38.101Z,1.80
2019-06-15T15:10:08.698Z,1.57
2019-06-15T15:12:41.457Z,1.67
2019-06-15T15:15:10.650Z,1.80
2019-06-15T15:17:42.149Z,1.70
2019-06-15T15:20:12.765Z,1.50
2019-06-15T15:22:42.982Z,1.77
2019-06-15T15:25:16.888Z,1.77
2019-06-15T15:27:47.381Z,1.77
2019-06-15T15:30:22.850Z,1.42
2019-06-15T15:32:53.157Z,1.50
2019-06-15T15:35:23.109Z,1.50
2019-06-15T15:37:56.558Z,1.70
2019-06-15T15:40:27.406Z,1.57
2019-06-15T15:42:58.469Z,1.45
2019-06-15T15:45:28.950Z,1.40
2019-06-15T15:47:58.671Z,1.52
2019-06-15T15:50:28.449Z,1.67
2019-06-15T15:52:58.063Z,1.50
2019-06-15T15:55:28.013Z,1.70
2019-06-15T15:57:58.374Z,2.47
2019-06-15T16:00:32.225Z,2.20
2019-06-15T16:03:02.026Z,1.67
2019-06-15T16:05:32.109Z,1.50
2019-06-15T16:08:01.967Z,7.95
2019-06-15T16:10:32.781Z,8.70
2019-06-15T16:13:02.697Z,2.80
2019-06-15T16:15:32.409Z,1.72
2019-06-15T16:18:02.785Z,2.47
2019-06-15T16:20:32.760Z,1.82
2019-06-15T16:23:07.198Z,1.80
2019-06-15T16:25:37.353Z,1.57
2019-06-15T16:28:07.515Z,1.52
2019-06-15T16:31:00.403Z,1.65
2019-06-15T16:33:10.349Z,1.55
2019-06-15T16:35:40.187Z,1.55
2019-06-15T16:38:10.638Z,1.50
2019-06-15T16:40:41.716Z,1.80
2019-06-15T16:43:12.937Z,1.80
2019-06-15T16:45:46.685Z,1.37
2019-06-15T16:48:16.841Z,1.62
2019-06-15T16:50:47.218Z,1.80
2019-06-15T16:53:17.709Z,1.47
2019-06-15T16:55:47.485Z,1.35
2019-06-15T16:58:17.293Z,1.80
2019-06-15T17:00:47.909Z,1.40
2019-06-15T17:03:24.989Z,1.40
2019-06-15T17:05:49.619Z,1.37
2019-06-15T17:08:19.529Z,1.40
2019-06-15T17:10:49.906Z,1.60
2019-06-15T17:13:21.521Z,1.60
2019-06-15T17:15:51.347Z,1.57
2019-06-15T17:18:22.317Z,1.40
2019-06-15T17:20:53.275Z,1.30
2019-06-15T17:23:27.374Z,1.52
2019-06-15T17:25:55.510Z,1.10
2019-06-15T17:28:26.551Z,1.10
2019-06-15T17:30:56.938Z,1.10
2019-06-15T17:33:36.962Z,1.10
2019-06-15T17:36:03.293Z,1.60
2019-06-15T17:38:32.121Z,1.00
2019-06-15T17:41:01.841Z,1.45
2019-06-15T17:43:32.450Z,1.30
2019-06-15T17:46:07.236Z,1.30
2019-06-15T17:48:38.269Z,2.08
2019-06-15T17:51:08.634Z,1.05
2019-06-15T17:53:39.036Z,1.15
2019-06-15T17:56:08.931Z,1.30
2019-06-15T17:58:38.994Z,1.50
2019-06-15T18:01:09.105Z,1.20
2019-06-15T18:03:50.303Z,1.47
2019-06-15T18:06:12.257Z,1.40
2019-06-15T18:08:46.492Z,1.47
2019-06-15T18:11:16.766Z,1.50
2019-06-15T18:13:49.477Z,1.40
2019-06-15T18:16:22.801Z,1.35
2019-06-15T18:18:52.565Z,1.75
2019-06-15T18:21:22.673Z,1.70
2019-06-15T18:23:53.155Z,1.40
2019-06-15T18:26:26.742Z,1.32
2019-06-15T18:28:57.465Z,1.55
2019-06-15T18:31:27.267Z,1.57
2019-06-15T18:34:09.508Z,1.52
2019-06-15T18:36:31.049Z,1.50
2019-06-15T18:39:02.329Z,1.30
2019-06-15T18:41:32.666Z,1.40
2019-06-15T18:44:02.658Z,1.60
2019-06-15T18:46:36.614Z,1.67
2019-06-15T18:49:09.222Z,1.67
2019-06-15T18:51:40.617Z,1.50
2019-06-15T18:54:11.745Z,1.67
2019-06-15T18:56:46.005Z,1.37
2019-06-15T18:59:16.857Z,1.50
2019-06-15T19:01:47.092Z,1.92
2019-06-15T19:04:28.124Z,1.70
2019-06-15T19:06:49.349Z,1.60
2019-06-15T19:09:19.702Z,1.70
2019-06-15T19:11:49.889Z,1.65
2019-06-15T19:14:20.293Z,1.40
2019-06-15T19:16:50.872Z,1.55
2019-06-15T19:19:21.057Z,1.40
2019-06-15T19:21:52.182Z,1.60
2019-06-15T19:24:22.253Z,1.37
2019-06-15T19:26:53.563Z,1.20
2019-06-15T19:29:23.511Z,1.50
2019-06-15T19:31:57.056Z,1.62
2019-06-15T19:34:41.081Z,1.40
2019-06-15T19:36:58.397Z,1.60
2019-06-15T19:39:29.273Z,1.87
2019-06-15T19:42:02.177Z,1.60
2019-06-15T19:44:33.037Z,1.80
2019-06-15T19:47:04.015Z,1.50
2019-06-15T19:49:36.292Z,1.60
2019-06-15T19:52:07.473Z,1.60
2019-06-15T19:54:39.854Z,1.70
2019-06-15T19:57:09.947Z,1.85
2019-06-15T19:59:39.945Z,1.80
2019-06-15T20:02:10.809Z,2.10
2019-06-15T20:04:53.924Z,1.80
2019-06-15T20:07:12.225Z,1.67
2019-06-15T20:09:42.521Z,1.75
2019-06-15T20:12:20.867Z,1.70
2019-06-15T20:14:46.260Z,1.92
2019-06-15T20:17:17.498Z,1.70
2019-06-15T20:19:48.569Z,1.20
2019-06-15T20:22:18.940Z,1.87
2019-06-15T20:24:49.874Z,1.50
2019-06-15T20:27:19.525Z,1.37
2019-06-15T20:29:49.883Z,1.47
2019-06-15T20:32:19.637Z,2.05
2019-06-15T20:34:49.509Z,1.70
2019-06-15T20:37:19.470Z,1.60
2019-06-15T20:39:50.970Z,3.92
2019-06-15T20:42:22.186Z,2.72
2019-06-15T20:44:52.506Z,2.05
2019-06-15T20:47:26.377Z,1.70
2019-06-15T20:49:56.883Z,1.35
2019-06-15T20:52:26.753Z,1.57
2019-06-15T20:54:57.209Z,1.90
2019-06-15T20:57:29.062Z,1.50
2019-06-15T20:59:59.898Z,1.62
2019-06-15T21:02:30.977Z,2.15
2019-06-15T21:05:00.607Z,1.82
2019-06-15T21:07:30.325Z,2.10
2019-06-15T21:10:00.071Z,2.00
2019-06-15T21:12:30.525Z,2.08
2019-06-15T21:15:00.836Z,2.17
2019-06-15T21:17:31.102Z,2.25
2019-06-15T21:20:01.531Z,2.40
2019-06-15T21:22:31.737Z,2.20
2019-06-15T21:25:02.007Z,2.42
2019-06-15T21:27:31.941Z,3.02
2019-06-15T21:30:02.351Z,2.98
2019-06-15T21:32:32.951Z,2.50
2019-06-15T21:35:03.438Z,3.72
2019-06-15T21:37:37.616Z,3.42
2019-06-15T21:40:07.963Z,4.25
2019-06-15T21:42:38.337Z,3.30
2019-06-15T21:45:08.405Z,3.70
2019-06-15T21:47:38.865Z,3.90
2019-06-15T21:50:08.737Z,3.10
2019-06-15T21:52:39.319Z,2.90
2019-06-15T21:55:10.297Z,2.80
2019-06-15T21:57:39.958Z,2.62
2019-06-15T22:00:13.414Z,2.72
2019-06-15T22:02:47.125Z,2.90
2019-06-15T22:05:17.714Z,2.65
2019-06-15T22:07:47.798Z,2.90
2019-06-15T22:10:19.083Z,2.30
2019-06-15T22:12:48.917Z,2.58
2019-06-15T22:15:19.339Z,2.25
2019-06-15T22:17:49.172Z,2.67
2019-06-15T22:20:19.618Z,2.50
2019-06-15T22:22:50.670Z,2.37
2019-06-15T22:25:21.481Z,2.45
2019-06-15T22:27:51.593Z,2.30
2019-06-15T22:30:23.114Z,2.10
2019-06-15T22:32:56.137Z,2.20
2019-06-15T22:35:27.025Z,2.20
2019-06-15T22:37:57.023Z,2.22
2019-06-15T22:40:30.595Z,1.70
2019-06-15T22:43:03.181Z,2.60
2019-06-15T22:45:33.614Z,2.10
2019-06-15T22:48:06.643Z,2.10
2019-06-15T22:50:36.248Z,2.20
2019-06-15T22:53:07.307Z,1.90
2019-06-15T22:55:37.481Z,2.10
2019-06-15T22:58:08.229Z,2.30
2019-06-15T23:00:40.077Z,2.17
2019-06-15T23:03:10.109Z,2.20
2019-06-15T23:05:39.926Z,2.08
2019-06-15T23:08:10.407Z,2.17
2019-06-15T23:10:40.269Z,2.33
2019-06-15T23:13:10.185Z,2.02
2019-06-15T23:15:40.665Z,1.92
2019-06-15T23:18:12.623Z,2.00
2019-06-15T23:20:46.052Z,2.02
2019-06-15T23:23:16.196Z,2.02
2019-06-15T23:25:47.390Z,2.02
2019-06-15T23:28:17.120Z,1.75
2019-06-15T23:30:47.483Z,2.00
2019-06-15T23:33:20.887Z,1.60
2019-06-15T23:35:56.780Z,1.85
2019-06-15T23:38:27.505Z,2.00
2019-06-15T23:40:58.224Z,1.77
2019-06-15T23:43:29.566Z,1.90
2019-06-15T23:45:59.233Z,2.22
2019-06-15T23:48:29.209Z,2.22
2019-06-15T23:51:00.110Z,2.12
2019-06-15T23:53:30.562Z,2.10
2019-06-15T23:56:00.501Z,2.20
2019-06-15T23:58:31.419Z,2.10
